createdAt,value
2023-01-11T00:00:00.348Z,3.40
2023-01-11T00:02:48.246Z,3.77
2023-01-11T00:05:45.342Z,3.63
2023-01-11T00:08:32.819Z,4.00
2023-01-11T00:11:20.203Z,3.37
2023-01-11T00:14:07.549Z,4.00
2023-01-11T00:16:54.945Z,3.60
2023-01-11T00:19:42.365Z,3.47
2023-01-11T00:22:29.697Z,3.77
2023-01-11T00:25:17.169Z,3.23
2023-01-11T00:28:04.757Z,3.53
2023-01-11T00:30:52.218Z,3.80
2023-01-11T00:33:39.583Z,3.43
2023-01-11T00:36:27.035Z,3.77
2023-01-11T00:39:14.363Z,3.63
2023-01-11T00:42:20.600Z,3.10
2023-01-11T00:45:26.905Z,3.90
2023-01-11T00:48:14.420Z,3.30
2023-01-11T00:51:01.846Z,3.70
2023-01-11T00:53:50.985Z,3.10
2023-01-11T00:56:38.344Z,4.37
2023-01-11T00:59:25.755Z,3.40
2023-01-11T01:02:13.203Z,3.73
2023-01-11T01:05:00.800Z,3.63
2023-01-11T01:07:48.202Z,3.70
2023-01-11T01:10:35.587Z,3.67
2023-01-11T01:13:41.791Z,3.77
2023-01-11T01:16:29.219Z,2.97
2023-01-11T01:19:16.713Z,3.93
2023-01-11T01:22:04.125Z,2.93
2023-01-11T01:24:51.463Z,3.40
2023-01-11T01:27:38.853Z,2.90
2023-01-11T01:30:26.252Z,3.87
2023-01-11T01:33:13.772Z,3.53
2023-01-11T01:36:04.356Z,3.63
2023-01-11T01:38:51.863Z,3.00
2023-01-11T01:41:39.518Z,4.07
2023-01-11T01:44:45.785Z,3.50
2023-01-11T01:47:36.773Z,3.83
2023-01-11T01:50:45.407Z,3.33
2023-01-11T01:53:37.381Z,3.23
2023-01-11T01:56:27.838Z,3.60
2023-01-11T01:59:16.097Z,3.43
2023-01-11T02:02:03.696Z,3.70
2023-01-11T02:04:51.779Z,3.00
2023-01-11T02:07:40.648Z,3.67
2023-01-11T02:10:28.845Z,3.30
2023-01-11T02:13:16.282Z,3.03
2023-01-11T02:16:09.767Z,3.00
2023-01-11T02:18:57.971Z,3.00
2023-01-11T02:22:17.597Z,3.50
2023-01-11T02:25:05.022Z,2.73
2023-01-11T02:27:55.404Z,4.37
2023-01-11T02:30:59.650Z,2.93
2023-01-11T02:33:50.078Z,3.30
2023-01-11T02:36:56.041Z,3.17
2023-01-11T02:39:46.221Z,3.13
2023-01-11T02:42:56.874Z,2.60
2023-01-11T02:45:59.732Z,2.87
2023-01-11T02:48:47.057Z,3.53
2023-01-11T02:51:47.697Z,2.57
2023-01-11T02:54:37.152Z,2.80
2023-01-11T02:57:25.803Z,2.97
2023-01-11T03:00:13.794Z,2.97
2023-01-11T03:03:08.019Z,3.10
2023-01-11T03:06:15.696Z,2.50
2023-01-11T03:09:18.783Z,3.63
2023-01-11T03:12:33.743Z,2.93
2023-01-11T03:15:33.173Z,2.70
2023-01-11T03:18:39.344Z,2.70
2023-01-11T03:21:29.714Z,2.90
2023-01-11T03:24:31.333Z,3.07
2023-01-11T03:27:18.770Z,3.20
2023-01-11T03:30:06.340Z,2.70
2023-01-11T03:33:02.965Z,3.23
2023-01-11T03:36:07.445Z,2.50
2023-01-11T03:38:56.743Z,2.90
2023-01-11T03:41:44.751Z,3.10
2023-01-11T03:44:34.995Z,3.13
2023-01-11T03:47:24.176Z,2.80
2023-01-11T03:50:13.047Z,3.00
2023-01-11T03:53:01.280Z,2.63
2023-01-11T03:55:50.268Z,2.70
2023-01-11T03:58:37.616Z,2.67
2023-01-11T04:01:25.492Z,2.77
2023-01-11T04:04:12.960Z,3.60
2023-01-11T04:07:00.397Z,3.70
2023-01-11T04:09:47.823Z,3.60
2023-01-11T04:12:35.203Z,2.70
2023-01-11T04:15:22.641Z,2.33
2023-01-11T04:18:10.027Z,2.30
2023-01-11T04:20:57.372Z,2.60
2023-01-11T04:23:44.810Z,2.23
2023-01-11T04:26:32.269Z,2.00
2023-01-11T04:29:19.664Z,2.23
2023-01-11T04:32:07.001Z,2.00
2023-01-11T04:34:54.349Z,2.20
2023-01-11T04:37:41.749Z,2.20
2023-01-11T04:40:29.145Z,1.90
2023-01-11T04:43:16.501Z,2.00
2023-01-11T04:46:03.878Z,2.30
2023-01-11T04:48:51.745Z,2.40
2023-01-11T04:51:39.068Z,1.93
2023-01-11T04:54:26.463Z,2.50
2023-01-11T04:57:14.613Z,2.03
2023-01-11T05:00:02.244Z,3.50
2023-01-11T05:02:49.592Z,2.20
2023-01-11T05:05:37.186Z,4.83
2023-01-11T05:08:25.433Z,3.70
2023-01-11T05:11:12.838Z,2.33
2023-01-11T05:14:00.237Z,3.23
2023-01-11T05:16:47.704Z,2.30
2023-01-11T05:19:35.085Z,2.50
2023-01-11T05:22:22.556Z,2.30
2023-01-11T05:25:10.116Z,2.50
2023-01-11T05:27:57.477Z,2.30
2023-01-11T05:30:44.854Z,2.20
2023-01-11T05:33:32.204Z,2.30
2023-01-11T05:36:21.458Z,2.47
2023-01-11T05:39:09.065Z,2.43
2023-01-11T05:41:56.486Z,2.40
2023-01-11T05:45:02.440Z,2.40
2023-01-11T05:47:52.949Z,2.60
2023-01-11T05:50:41.507Z,2.47
2023-01-11T05:53:28.878Z,2.23
2023-01-11T05:56:16.245Z,2.37
2023-01-11T05:59:04.037Z,3.00
2023-01-11T06:01:51.664Z,2.00
2023-01-11T06:04:39.116Z,2.20
2023-01-11T06:07:26.621Z,1.73
2023-01-11T06:10:13.985Z,2.40
2023-01-11T06:13:20.292Z,1.70
2023-01-11T06:16:11.619Z,1.70
2023-01-11T06:18:59.017Z,1.97
2023-01-11T06:21:46.563Z,1.60
2023-01-11T06:24:33.949Z,1.93
2023-01-11T06:27:21.297Z,2.03
2023-01-11T06:30:08.943Z,1.70
2023-01-11T06:32:56.366Z,1.80
2023-01-11T06:35:44.212Z,1.60
2023-01-11T06:38:31.712Z,1.67
2023-01-11T06:41:19.151Z,1.60
2023-01-11T06:44:06.697Z,1.70
2023-01-11T06:46:54.079Z,1.80
2023-01-11T06:49:41.475Z,1.60
2023-01-11T06:52:28.891Z,1.80
2023-01-11T06:55:16.270Z,5.57
2023-01-11T06:58:03.651Z,13.23
2023-01-11T07:00:52.350Z,4.20
2023-01-11T07:03:41.535Z,2.07
2023-01-11T07:06:31.920Z,1.93
2023-01-11T07:09:18.834Z,2.67
2023-01-11T07:12:05.896Z,2.50
2023-01-11T07:14:52.798Z,2.30
2023-01-11T07:17:39.756Z,1.90
2023-01-11T07:20:26.897Z,2.00
2023-01-11T07:23:14.368Z,2.30
2023-01-11T07:26:01.343Z,2.30
2023-01-11T07:28:48.380Z,1.70
2023-01-11T07:31:35.398Z,1.87
2023-01-11T07:34:22.391Z,2.03
2023-01-11T07:37:09.581Z,2.10
2023-01-11T07:40:19.001Z,1.97
2023-01-11T07:43:11.831Z,2.00
2023-01-11T07:45:58.866Z,2.17
2023-01-11T07:48:45.875Z,2.47
2023-01-11T07:51:32.862Z,2.27
2023-01-11T07:54:20.254Z,2.23
2023-01-11T07:57:07.180Z,2.30
2023-01-11T07:59:54.098Z,2.53
2023-01-11T08:02:41.228Z,2.30
2023-01-11T08:05:28.248Z,2.60
2023-01-11T08:08:15.192Z,2.30
2023-01-11T08:11:20.923Z,2.20
2023-01-11T08:14:29.044Z,2.53
2023-01-11T08:17:16.701Z,2.30
2023-01-11T08:20:04.052Z,2.33
2023-01-11T08:22:51.044Z,2.27
2023-01-11T08:25:38.546Z,2.33
2023-01-11T08:28:25.526Z,2.63
2023-01-11T08:31:12.509Z,2.87
2023-01-11T08:33:59.493Z,2.77
2023-01-11T08:36:46.456Z,5.00
2023-01-11T08:39:33.673Z,9.57
2023-01-11T08:42:20.664Z,21.50
2023-01-11T08:45:08.347Z,27.57
2023-01-11T08:47:55.983Z,15.07
2023-01-11T08:50:44.927Z,15.70
2023-01-11T08:53:32.037Z,7.33
2023-01-11T08:56:18.986Z,13.40
2023-01-11T08:59:06.443Z,9.03
2023-01-11T09:01:53.499Z,5.90
2023-01-11T09:04:41.768Z,3.17
2023-01-11T09:07:29.107Z,2.40
2023-01-11T09:10:16.242Z,2.53
2023-01-11T09:13:03.740Z,2.07
2023-01-11T09:15:54.550Z,2.00
2023-01-11T09:18:41.529Z,1.93
2023-01-11T09:21:29.122Z,1.90
2023-01-11T09:24:16.173Z,2.10
2023-01-11T09:27:04.814Z,2.20
2023-01-11T09:29:51.896Z,2.20
2023-01-11T09:32:38.883Z,2.60
2023-01-11T09:35:26.988Z,2.80
2023-01-11T09:38:13.929Z,3.00
2023-01-11T09:41:27.975Z,3.33
2023-01-11T09:44:23.227Z,3.60
2023-01-11T09:47:28.784Z,3.47
2023-01-11T09:50:23.416Z,3.27
2023-01-11T09:53:27.997Z,3.47
2023-01-11T09:56:20.937Z,3.03
2023-01-11T09:59:22.938Z,3.00
2023-01-11T10:02:38.687Z,2.93
2023-01-11T10:05:46.104Z,3.80
2023-01-11T10:18:29.448Z,3.13
2023-01-11T10:19:37.744Z,3.57
2023-01-11T10:22:33.636Z,3.27
2023-01-11T10:25:34.912Z,2.90
2023-01-11T10:28:35.042Z,2.90
2023-01-11T10:31:30.265Z,2.70
2023-01-11T10:34:58.441Z,2.43
2023-01-11T10:38:05.798Z,2.37
2023-01-11T10:41:04.578Z,2.87
2023-01-11T10:44:05.003Z,2.73
2023-01-11T10:46:55.030Z,2.90
2023-01-11T10:50:05.125Z,3.17
2023-01-11T10:53:21.715Z,3.00
2023-01-11T10:57:03.201Z,3.13
2023-01-11T11:00:10.794Z,2.93
2023-01-11T11:03:21.872Z,2.67
2023-01-11T11:06:23.845Z,2.57
2023-01-11T11:09:37.026Z,5.40
2023-01-11T11:12:37.357Z,3.20
2023-01-11T11:15:33.037Z,2.93
2023-01-11T11:18:20.008Z,2.83
2023-01-11T11:21:20.836Z,2.67
2023-01-11T11:24:27.818Z,2.47
2023-01-11T11:27:30.392Z,2.70
2023-01-11T11:30:31.371Z,2.60
2023-01-11T11:33:24.448Z,2.80
2023-01-11T11:36:12.974Z,2.53
2023-01-11T11:39:19.330Z,2.77
2023-01-11T11:42:14.381Z,2.50
2023-01-11T11:45:19.606Z,2.60
2023-01-11T11:48:06.679Z,2.10
2023-01-11T11:50:56.131Z,2.37
2023-01-11T11:53:54.829Z,2.33
2023-01-11T11:56:41.809Z,2.40
2023-01-11T11:59:32.706Z,2.47
2023-01-11T12:02:29.522Z,2.87
2023-01-11T12:05:16.959Z,2.80
2023-01-11T12:08:04.333Z,2.60
2023-01-11T12:10:57.386Z,2.40
2023-01-11T12:13:57.389Z,2.67
2023-01-11T12:16:46.001Z,3.07
2023-01-11T12:19:45.195Z,2.70
2023-01-11T12:22:32.179Z,2.20
2023-01-11T12:25:24.181Z,2.50
2023-01-11T12:28:17.302Z,2.53
2023-01-11T12:31:40.301Z,2.60
2023-01-11T12:35:09.901Z,2.30
2023-01-11T12:38:36.754Z,2.53
2023-01-11T12:41:52.840Z,2.37
2023-01-11T12:44:58.264Z,2.43
2023-01-11T12:47:55.194Z,2.47
2023-01-11T12:51:26.810Z,2.60
2023-01-11T12:54:16.915Z,2.47
2023-01-11T12:57:32.061Z,2.40
2023-01-11T13:00:48.429Z,3.07
2023-01-11T13:03:53.601Z,2.80
2023-01-11T13:07:11.912Z,2.47
2023-01-11T13:10:04.604Z,3.40
2023-01-11T13:13:05.932Z,3.07
2023-01-11T13:16:24.174Z,3.33
2023-01-11T13:19:21.155Z,3.03
2023-01-11T13:22:16.775Z,3.10
2023-01-11T13:25:17.343Z,3.60
2023-01-11T13:28:23.905Z,2.97
2023-01-11T13:31:13.650Z,3.37
2023-01-11T13:34:07.387Z,3.30
2023-01-11T13:37:01.793Z,3.83
2023-01-11T13:39:57.347Z,3.17
2023-01-11T13:42:49.385Z,3.63
2023-01-11T13:45:43.161Z,3.90
2023-01-11T13:48:37.512Z,3.67
2023-01-11T13:51:29.990Z,2.73
2023-01-11T13:54:26.937Z,3.73
2023-01-11T13:57:30.028Z,3.60
2023-01-11T14:00:38.037Z,3.43
2023-01-11T14:03:30.108Z,3.07
2023-01-11T14:06:34.464Z,3.33
2023-01-11T14:09:27.606Z,3.33
2023-01-11T14:12:19.469Z,3.47
2023-01-11T14:15:19.203Z,3.20
2023-01-11T14:18:50.804Z,3.50
2023-01-11T14:22:10.881Z,2.80
2023-01-11T14:25:00.513Z,2.80
2023-01-11T14:28:09.177Z,2.77
2023-01-11T14:31:17.418Z,3.13
2023-01-11T14:34:04.463Z,3.10
2023-01-11T14:37:09.718Z,2.83
2023-01-11T14:40:05.331Z,2.73
2023-01-11T14:43:17.281Z,3.07
2023-01-11T14:46:38.379Z,2.90
2023-01-11T14:49:34.001Z,2.60
2023-01-11T14:52:39.195Z,3.30
2023-01-11T14:55:30.404Z,2.40
2023-01-11T14:58:26.355Z,2.63
2023-01-11T15:01:13.309Z,2.70
2023-01-11T15:04:00.391Z,2.90
2023-01-11T15:06:55.120Z,4.40
2023-01-11T15:09:46.084Z,2.40
2023-01-11T15:12:34.857Z,2.57
2023-01-11T15:15:43.639Z,3.00
2023-01-11T15:18:31.388Z,2.83
2023-01-11T15:21:26.651Z,2.77
2023-01-11T15:24:27.109Z,3.43
2023-01-11T15:27:26.014Z,2.70
2023-01-11T15:30:39.260Z,4.27
2023-01-11T15:33:27.391Z,3.63
2023-01-11T15:36:14.623Z,3.10
2023-01-11T15:39:05.648Z,3.90
2023-01-11T15:42:21.435Z,3.60
2023-01-11T15:45:21.982Z,2.97
2023-01-11T15:48:51.130Z,4.10
2023-01-11T15:51:58.308Z,2.63
2023-01-11T15:55:15.626Z,3.23
2023-01-11T15:58:37.282Z,3.03
2023-01-11T16:01:31.702Z,3.27
2023-01-11T16:04:27.397Z,3.60
2023-01-11T16:07:17.771Z,6.47
2023-01-11T16:10:47.573Z,3.63
2023-01-11T16:13:37.305Z,2.97
2023-01-11T16:16:31.626Z,3.63
2023-01-11T16:19:21.602Z,3.50
2023-01-11T16:22:16.505Z,3.73
2023-01-11T16:25:06.344Z,3.67
2023-01-11T16:27:55.422Z,4.50
2023-01-11T16:30:43.418Z,5.27
2023-01-11T16:33:32.796Z,3.77
2023-01-11T16:36:22.042Z,3.10
2023-01-11T16:39:15.821Z,3.20
2023-01-11T16:42:06.624Z,3.50
2023-01-11T16:45:03.170Z,3.80
2023-01-11T16:48:16.658Z,4.00
2023-01-11T16:51:16.387Z,4.17
2023-01-11T16:54:04.317Z,3.90
2023-01-11T16:56:51.917Z,3.83
2023-01-11T16:59:39.413Z,3.37
2023-01-11T17:02:32.866Z,3.63
2023-01-11T17:05:23.261Z,3.57
2023-01-11T17:08:34.917Z,3.13
2023-01-11T17:11:27.663Z,3.17
2023-01-11T17:14:33.220Z,3.37
2023-01-11T17:17:21.208Z,3.27
2023-01-11T17:20:21.675Z,3.60
2023-01-11T17:23:15.397Z,3.40
2023-01-11T17:26:02.776Z,3.03
2023-01-11T17:28:53.197Z,4.70
2023-01-11T17:31:40.373Z,3.67
2023-01-11T17:34:31.776Z,3.20
2023-01-11T17:37:19.637Z,4.57
2023-01-11T17:40:19.330Z,5.00
2023-01-11T17:43:29.473Z,5.07
2023-01-11T17:46:24.675Z,4.40
2023-01-11T17:49:23.754Z,4.33
2023-01-11T17:52:23.477Z,4.30
2023-01-11T17:55:18.129Z,7.70
2023-01-11T17:58:28.412Z,20.97
2023-01-11T18:01:19.997Z,13.60
2023-01-11T18:04:19.718Z,12.80
2023-01-11T18:07:17.327Z,9.37
2023-01-11T18:10:04.677Z,6.30
2023-01-11T18:12:52.979Z,8.00
2023-01-11T18:15:40.007Z,7.63
2023-01-11T18:18:47.600Z,5.20
2023-01-11T18:21:50.936Z,5.40
2023-01-11T18:24:43.221Z,5.43
2023-01-11T18:27:31.643Z,5.70
2023-01-11T18:30:30.904Z,4.90
2023-01-11T18:33:20.847Z,4.90
2023-01-11T18:36:21.703Z,4.53
2023-01-11T18:39:12.308Z,5.00
2023-01-11T18:42:09.671Z,4.50
2023-01-11T18:44:57.018Z,4.13
2023-01-11T18:47:44.431Z,4.50
2023-01-11T18:50:31.904Z,4.07
2023-01-11T18:53:19.137Z,4.53
2023-01-11T18:56:06.571Z,4.33
2023-01-11T18:58:53.662Z,5.40
2023-01-11T19:01:54.408Z,4.80
2023-01-11T19:04:46.543Z,4.20
2023-01-11T19:07:33.505Z,4.40
2023-01-11T19:10:22.175Z,6.00
2023-01-11T19:13:09.677Z,4.70
2023-01-11T19:15:56.766Z,4.87
2023-01-11T19:18:43.699Z,4.77
2023-01-11T19:21:30.683Z,4.50
2023-01-11T19:24:17.610Z,4.23
2023-01-11T19:27:04.659Z,4.10
2023-01-11T19:29:52.725Z,4.37
2023-01-11T19:32:39.885Z,5.00
2023-01-11T19:35:26.885Z,4.57
2023-01-11T19:38:15.881Z,5.07
2023-01-11T19:41:08.297Z,4.47
2023-01-11T19:43:55.297Z,4.97
2023-01-11T19:46:42.326Z,4.20
2023-01-11T19:49:30.042Z,5.00
2023-01-11T19:52:19.270Z,6.30
2023-01-11T19:55:06.666Z,9.33
2023-01-11T19:57:53.613Z,7.30
2023-01-11T20:00:40.608Z,5.23
2023-01-11T20:03:29.042Z,5.50
2023-01-11T20:06:16.005Z,5.33
2023-01-11T20:09:03.674Z,5.23
2023-01-11T20:11:50.646Z,5.17
2023-01-11T20:14:38.880Z,4.93
2023-01-11T20:17:25.844Z,4.77
2023-01-11T20:20:15.120Z,4.70
2023-01-11T20:23:02.236Z,4.60
2023-01-11T20:25:49.513Z,5.07
2023-01-11T20:28:36.755Z,5.60
2023-01-11T20:31:27.896Z,5.03
2023-01-11T20:34:16.286Z,4.43
2023-01-11T20:37:03.286Z,4.80
2023-01-11T20:39:50.256Z,5.30
2023-01-11T20:42:37.294Z,4.47
2023-01-11T20:45:24.288Z,3.83
2023-01-11T20:48:11.369Z,4.57
2023-01-11T20:51:02.981Z,5.03
2023-01-11T20:53:50.166Z,4.80
2023-01-11T20:56:38.508Z,3.63
2023-01-11T20:59:25.436Z,3.67
2023-01-11T21:02:14.218Z,3.83
2023-01-11T21:05:04.366Z,3.77
2023-01-11T21:07:54.108Z,4.40
2023-01-11T21:10:41.048Z,4.33
2023-01-11T21:13:27.975Z,4.37
2023-01-11T21:16:16.587Z,4.30
2023-01-11T21:19:04.416Z,3.93
2023-01-11T21:21:51.448Z,4.47
2023-01-11T21:24:40.875Z,3.90
2023-01-11T21:27:27.849Z,3.33
2023-01-11T21:30:14.939Z,4.20
2023-01-11T21:33:01.898Z,4.10
2023-01-11T21:35:49.776Z,4.00
2023-01-11T21:38:37.014Z,4.60
2023-01-11T21:41:53.111Z,4.37
2023-01-11T21:44:40.145Z,4.77
2023-01-11T21:47:27.112Z,5.43
2023-01-11T21:50:14.079Z,5.27
2023-01-11T21:53:01.000Z,5.17
2023-01-11T21:55:49.506Z,4.50
2023-01-11T21:58:36.494Z,4.50
2023-01-11T22:01:23.628Z,6.27
2023-01-11T22:04:13.270Z,13.97
2023-01-11T22:07:00.362Z,6.33
2023-01-11T22:10:03.817Z,4.53
2023-01-11T22:12:51.675Z,6.50
2023-01-11T22:15:38.690Z,5.13
2023-01-11T22:18:25.620Z,4.97
2023-01-11T22:21:14.943Z,5.03
2023-01-11T22:24:02.114Z,5.53
2023-01-11T22:26:49.158Z,5.20
2023-01-11T22:29:37.290Z,5.77
2023-01-11T22:32:24.458Z,4.93
2023-01-11T22:35:11.486Z,4.80
2023-01-11T22:37:58.450Z,4.93
2023-01-11T22:40:45.539Z,5.60
2023-01-11T22:43:32.475Z,4.83
2023-01-11T22:46:24.548Z,5.00
2023-01-11T22:49:12.057Z,4.90
2023-01-11T22:51:59.001Z,4.83
2023-01-11T22:54:45.960Z,4.10
2023-01-11T22:57:32.986Z,4.30
2023-01-11T23:00:20.193Z,5.07
2023-01-11T23:03:07.254Z,5.67
2023-01-11T23:05:54.209Z,4.83
2023-01-11T23:08:42.876Z,4.73
2023-01-11T23:11:51.062Z,4.50
2023-01-11T23:14:38.019Z,4.80
2023-01-11T23:17:24.948Z,5.03
2023-01-11T23:20:12.260Z,3.90
2023-01-11T23:22:59.247Z,4.70
2023-01-11T23:25:46.244Z,4.63
2023-01-11T23:28:34.530Z,4.20
2023-01-11T23:31:23.773Z,4.30
2023-01-11T23:34:12.175Z,4.07
2023-01-11T23:36:59.110Z,5.10
2023-01-11T23:39:46.070Z,4.47
2023-01-11T23:42:33.935Z,4.20
2023-01-11T23:45:20.870Z,4.40
2023-01-11T23:48:07.860Z,3.97
2023-01-11T23:50:54.796Z,3.80
2023-01-11T23:53:41.875Z,4.27
2023-01-11T23:56:29.999Z,4.83
2023-01-11T23:59:16.943Z,4.13
